Time;durP1;ratioP1;P1;durP2;ratioP2;P2;SDS_P1;SDS_P2;PMS_P1;PMS_P2;Temp;Humidity;BMP_temperature;BMP_pressure;BME280_temperature;BME280_humidity;BME280_pressure;Samples;Min_cycle;Max_cycle;Signal;HPM_P1;HPM_P2
2023/08/02 02:02:07;;;;;;;5.85;3.05;;;;;;;;;;4445893;28;20070;-76
2023/08/02 02:04:39;;;;;;;5.72;2.97;;;;;;;;;;4323260;33;20056;-76
2023/08/02 02:07:06;;;;;;;6.90;2.50;;;;;;;;;;4324184;33;20074;-77
2023/08/02 02:09:32;;;;;;;2.92;2.72;;;;;;;;;;4324403;33;20050;-76
2023/08/02 02:11:58;;;;;;;7.80;2.80;;;;;;;;;;4324095;33;20079;-76
2023/08/02 02:14:25;;;;;;;3.65;2.80;;;;;;;;;;4320783;33;20358;-77
2023/08/02 02:16:52;;;;;;;2.80;2.35;;;;;;;;;;4324151;33;20044;-76
2023/08/02 02:19:18;;;;;;;8.75;2.97;;;;;;;;;;4324569;33;20477;-77
2023/08/02 02:21:44;;;;;;;5.75;2.75;;;;;;;;;;4324286;33;20094;-77
2023/08/02 02:24:10;;;;;;;4.43;3.25;;;;;;;;;;4305561;33;20125;-77
2023/08/02 02:26:37;;;;;;;5.62;3.00;;;;;;;;;;4303360;33;20155;-77
2023/08/02 02:29:03;;;;;;;3.65;2.85;;;;;;;;;;4317663;33;20048;-76
2023/08/02 02:31:29;;;;;;;4.97;2.90;;;;;;;;;;4321823;33;20138;-76
2023/08/02 02:33:55;;;;;;;3.05;2.75;;;;;;;;;;4320830;33;20052;-76
2023/08/02 02:36:21;;;;;;;2.75;2.55;;;;;;;;;;4320681;33;20128;-75
2023/08/02 02:38:52;;;;;;;5.53;3.10;;;;;;;;;;4321843;33;20070;-75
2023/08/02 02:41:18;;;;;;;3.80;3.30;;;;;;;;;;4314223;33;20107;-76
2023/08/02 02:43:44;;;;;;;3.22;2.80;;;;;;;;;;4321464;33;20040;-77
2023/08/02 02:46:16;;;;;;;;;;;;;;;;;;4320369;33;20062;-77
2023/08/02 02:48:42;;;;;;;3.33;2.87;;;;;;;;;;4320872;33;19955;-77
2023/08/02 02:51:09;;;;;;;5.85;2.92;;;;;;;;;;4323535;33;20045;-76
2023/08/02 02:53:35;;;;;;;3.97;3.28;;;;;;;;;;4323878;33;20081;-77
2023/08/02 02:56:01;;;;;;;10.80;3.97;;;;;;;;;;4325690;33;20045;-76
2023/08/02 02:58:27;;;;;;;4.05;3.15;;;;;;;;;;4325546;33;20390;-77
2023/08/02 03:00:53;;;;;;;11.57;3.47;;;;;;;;;;4303917;33;20049;-77
2023/08/02 03:03:20;;;;;;;6.50;4.35;;;;;;;;;;4293752;33;20094;-77
2023/08/02 03:05:46;;;;;;;4.53;3.35;;;;;;;;;;4293620;33;20408;-76
2023/08/02 03:08:12;;;;;;;3.50;3.20;;;;;;;;;;4293979;33;20046;-76
2023/08/02 03:10:38;;;;;;;7.60;3.50;;;;;;;;;;4292645;33;20084;-77
2023/08/02 03:13:05;;;;;;;4.80;3.87;;;;;;;;;;4294336;33;20078;-77
2023/08/02 03:15:30;;;;;;;8.18;3.28;;;;;;;;;;4295858;33;20787;-77
2023/08/02 03:18:03;;;;;;;5.75;3.28;;;;;;;;;;4294333;33;20117;-77
2023/08/02 03:20:30;;;;;;;5.07;3.08;;;;;;;;;;4319862;33;20080;-77
2023/08/02 03:22:56;;;;;;;8.63;4.10;;;;;;;;;;4318752;33;20076;-76
2023/08/02 03:25:22;;;;;;;3.95;3.55;;;;;;;;;;4309040;33;20391;-76
2023/08/02 03:27:48;;;;;;;7.32;4.22;;;;;;;;;;4309550;33;20525;-76
2023/08/02 03:30:14;;;;;;;6.62;3.85;;;;;;;;;;4315570;33;20048;-77
2023/08/02 03:32:40;;;;;;;5.62;4.10;;;;;;;;;;4324272;33;20066;-75
2023/08/02 03:35:06;;;;;;;4.35;3.20;;;;;;;;;;4325834;33;20053;-75
2023/08/02 03:37:32;;;;;;;3.70;3.25;;;;;;;;;;4325473;33;20070;-76
2023/08/02 03:39:58;;;;;;;5.05;3.80;;;;;;;;;;4326416;33;20092;-75
2023/08/02 03:42:25;;;;;;;10.27;3.30;;;;;;;;;;4323979;33;20078;-75
2023/08/02 03:44:51;;;;;;;5.93;3.65;;;;;;;;;;4318518;33;20040;-77
2023/08/02 03:47:17;;;;;;;4.37;3.28;;;;;;;;;;4325685;33;20378;-76
2023/08/02 03:49:43;;;;;;;3.55;2.97;;;;;;;;;;4325902;33;20048;-77
2023/08/02 03:52:10;;;;;;;10.82;2.90;;;;;;;;;;4324586;33;20045;-76
2023/08/02 03:54:35;;;;;;;5.37;2.83;;;;;;;;;;4325345;33;20412;-75
2023/08/02 03:57:02;;;;;;;3.70;3.12;;;;;;;;;;4323447;33;20045;-77
2023/08/02 03:59:28;;;;;;;9.18;3.45;;;;;;;;;;4322451;33;20049;-75
2023/08/02 04:01:54;;;;;;;5.87;3.10;;;;;;;;;;4295960;33;20202;-76
2023/08/02 04:04:21;;;;;;;6.28;3.12;;;;;;;;;;4296001;33;20372;-75
2023/08/02 04:06:47;;;;;;;6.85;3.10;;;;;;;;;;4294189;33;20049;-77
2023/08/02 04:09:13;;;;;;;6.53;4.60;;;;;;;;;;4320139;33;20052;-76
2023/08/02 04:11:40;;;;;;;4.90;3.08;;;;;;;;;;4324573;33;20065;-76
2023/08/02 04:14:05;;;;;;;5.90;3.40;;;;;;;;;;4325495;33;20045;-76
2023/08/02 04:16:31;;;;;;;6.47;3.05;;;;;;;;;;4324364;33;20368;-77
2023/08/02 04:18:58;;;;;;;4.07;2.95;;;;;;;;;;4322556;33;20084;-77
2023/08/02 04:21:24;;;;;;;5.40;3.62;;;;;;;;;;4325413;33;20075;-76
2023/08/02 04:23:50;;;;;;;7.57;3.20;;;;;;;;;;4324509;33;20132;-76
2023/08/02 04:26:17;;;;;;;6.43;3.70;;;;;;;;;;4323002;33;20078;-76
2023/08/02 04:28:44;;;;;;;4.40;2.80;;;;;;;;;;4316996;33;20072;-77
2023/08/02 04:31:10;;;;;;;3.10;2.80;;;;;;;;;;4293199;33;20048;-77
2023/08/02 04:33:36;;;;;;;13.10;3.25;;;;;;;;;;4292656;33;20063;-76
2023/08/02 04:36:03;;;;;;;5.85;3.25;;;;;;;;;;4292722;33;20411;-76
2023/08/02 04:38:29;;;;;;;11.00;3.37;;;;;;;;;;4293905;33;20423;-76
2023/08/02 04:40:56;;;;;;;3.42;2.80;;;;;;;;;;4291595;33;20122;-76
2023/08/02 04:43:22;;;;;;;4.12;2.90;;;;;;;;;;4293415;33;20211;-75
2023/08/02 04:45:50;;;;;;;4.70;2.85;;;;;;;;;;4306661;33;20111;-75
2023/08/02 04:48:17;;;;;;;7.43;2.87;;;;;;;;;;4307770;33;20029;-75
2023/08/02 04:50:43;;;;;;;3.62;2.70;;;;;;;;;;4307144;33;20070;-75
2023/08/02 04:53:09;;;;;;;9.15;3.30;;;;;;;;;;4304670;33;20524;-76
2023/08/02 04:55:42;;;;;;;6.80;3.87;;;;;;;;;;4307555;33;20086;-76
2023/08/02 04:58:08;;;;;;;4.35;2.78;;;;;;;;;;4307989;33;20229;-75
2023/08/02 05:00:34;;;;;;;2.58;2.37;;;;;;;;;;4302051;33;20052;-75
2023/08/02 05:03:01;;;;;;;9.40;3.15;;;;;;;;;;4318387;33;20374;-76
2023/08/02 05:05:27;;;;;;;3.92;2.78;;;;;;;;;;4319684;33;20095;-75
2023/08/02 05:07:53;;;;;;;6.50;3.20;;;;;;;;;;4322722;33;20075;-75
2023/08/02 05:10:19;;;;;;;5.72;3.50;;;;;;;;;;4320874;33;20816;-75
2023/08/02 05:12:45;;;;;;;8.25;3.25;;;;;;;;;;4322195;33;20104;-75
2023/08/02 05:15:11;;;;;;;8.88;3.03;;;;;;;;;;4320025;33;20393;-75
2023/08/02 05:17:38;;;;;;;3.60;2.22;;;;;;;;;;4310710;33;20053;-75
2023/08/02 05:20:04;;;;;;;14.38;3.40;;;;;;;;;;4316426;33;20063;-76
2023/08/02 05:22:33;;;;;;;2.75;2.20;;;;;;;;;;4324338;33;20160;-75
2023/08/02 05:24:59;;;;;;;2.85;2.53;;;;;;;;;;4324831;33;20059;-74
2023/08/02 05:27:25;;;;;;;9.75;3.20;;;;;;;;;;4316652;33;20056;-74
2023/08/02 05:29:52;;;;;;;6.00;3.12;;;;;;;;;;4308894;33;20049;-75
2023/08/02 05:32:18;;;;;;;5.50;3.10;;;;;;;;;;4301824;33;20069;-75
2023/08/02 05:34:50;;;;;;;2.90;2.60;;;;;;;;;;4277421;33;20053;-75
2023/08/02 05:37:17;;;;;;;3.08;2.50;;;;;;;;;;4277382;33;20064;-72
2023/08/02 05:39:43;;;;;;;3.95;3.08;;;;;;;;;;4277006;33;20409;-74
2023/08/02 05:42:09;;;;;;;9.30;3.03;;;;;;;;;;4306772;33;20057;-74
2023/08/02 05:44:36;;;;;;;6.87;4.22;;;;;;;;;;4299696;33;20092;-74
2023/08/02 05:47:03;;;;;;;9.15;2.45;;;;;;;;;;4293255;33;20075;-73
2023/08/02 05:49:29;;;;;;;6.68;2.80;;;;;;;;;;4292577;33;20104;-74
2023/08/02 05:51:55;;;;;;;3.78;2.35;;;;;;;;;;4291874;33;20044;-73
2023/08/02 05:54:21;;;;;;;3.50;2.40;;;;;;;;;;4293127;33;20037;-72
2023/08/02 05:56:47;;;;;;;9.90;3.03;;;;;;;;;;4291659;33;20408;-80
2023/08/02 05:59:13;;;;;;;8.40;2.50;;;;;;;;;;4263074;33;20173;-81
2023/08/02 06:01:39;;;;;;;5.05;2.83;;;;;;;;;;4249611;33;20072;-75
2023/08/02 06:04:06;;;;;;;4.22;2.78;;;;;;;;;;4248199;33;20064;-79
2023/08/02 06:06:32;;;;;;;3.40;2.83;;;;;;;;;;4248421;33;20084;-76
2023/08/02 06:08:58;;;;;;;10.13;2.78;;;;;;;;;;4250122;33;20419;-77
2023/08/02 06:11:25;;;;;;;4.57;2.65;;;;;;;;;;4250015;33;20101;-75
2023/08/02 06:13:51;;;;;;;3.25;2.42;;;;;;;;;;4253736;33;20830;-84
2023/08/02 06:16:18;;;;;;;2.97;2.67;;;;;;;;;;4269370;33;20099;-90
2023/08/02 06:18:45;;;;;;;3.92;2.42;;;;;;;;;;4264051;33;20322;-89
2023/08/02 06:21:11;;;;;;;7.15;2.70;;;;;;;;;;4264500;33;20050;-77
2023/08/02 06:23:37;;;;;;;7.32;3.15;;;;;;;;;;4262937;33;20052;-87
2023/08/02 06:26:04;;;;;;;4.85;2.42;;;;;;;;;;4249194;33;20068;-77
2023/08/02 06:28:30;;;;;;;4.40;2.45;;;;;;;;;;4252489;33;20840;-78
2023/08/02 06:30:56;;;;;;;3.85;2.03;;;;;;;;;;4273931;33;20064;-76
2023/08/02 06:33:23;;;;;;;2.37;1.92;;;;;;;;;;4280907;33;20076;-76
2023/08/02 06:35:49;;;;;;;3.53;2.10;;;;;;;;;;4278721;33;20104;-76
2023/08/02 06:38:15;;;;;;;3.10;2.45;;;;;;;;;;4257288;33;20117;-76
2023/08/02 06:40:41;;;;;;;4.03;2.28;;;;;;;;;;4253641;33;20068;-83
2023/08/02 06:43:07;;;;;;;4.85;1.83;;;;;;;;;;4256299;33;20480;-88
2023/08/02 06:45:33;;;;;;;3.47;2.62;;;;;;;;;;4226469;33;20051;-82
2023/08/02 06:48:00;;;;;;;3.17;2.28;;;;;;;;;;4222276;33;20147;-84
2023/08/02 06:50:26;;;;;;;1.85;1.70;;;;;;;;;;4237861;33;20035;-84
2023/08/02 06:52:52;;;;;;;5.43;2.17;;;;;;;;;;4232734;34;20142;-84
2023/08/02 06:55:19;;;;;;;5.53;2.00;;;;;;;;;;4226150;33;20093;-81
2023/08/02 06:57:45;;;;;;;7.95;2.12;;;;;;;;;;4225262;33;20355;-76
2023/08/02 07:00:11;;;;;;;2.45;1.58;;;;;;;;;;4218534;33;20062;-80
2023/08/02 07:02:38;;;;;;;3.40;1.95;;;;;;;;;;4223865;33;20063;-78
2023/08/02 07:05:04;;;;;;;3.55;1.95;;;;;;;;;;4222705;33;20360;-75
2023/08/02 07:07:30;;;;;;;1.95;1.50;;;;;;;;;;4231813;33;20090;-74
2023/08/02 07:09:56;;;;;;;2.90;1.70;;;;;;;;;;4251129;33;20057;-73
2023/08/02 07:12:22;;;;;;;2.58;1.65;;;;;;;;;;4254144;33;20106;-75
2023/08/02 07:14:49;;;;;;;3.55;1.45;;;;;;;;;;4247400;33;20096;-75
2023/08/02 07:17:15;;;;;;;4.03;1.40;;;;;;;;;;4269604;33;20067;-74
2023/08/02 07:19:41;;;;;;;4.70;1.67;;;;;;;;;;4280412;33;20365;-76
2023/08/02 07:22:07;;;;;;;13.30;1.60;;;;;;;;;;4269597;33;20120;-76
2023/08/02 07:24:33;;;;;;;2.42;2.05;;;;;;;;;;4273656;33;20469;-76
2023/08/02 07:26:59;;;;;;;4.50;2.08;;;;;;;;;;4291661;33;20049;-74
2023/08/02 07:29:25;;;;;;;1.90;1.40;;;;;;;;;;4281263;33;20447;-75
2023/08/02 07:31:52;;;;;;;5.82;1.60;;;;;;;;;;4283480;33;20062;-75
2023/08/02 07:34:18;;;;;;;1.62;1.52;;;;;;;;;;4272462;33;20086;-75
2023/08/02 07:36:44;;;;;;;1.40;1.30;;;;;;;;;;4274822;33;20051;-75
2023/08/02 07:39:10;;;;;;;3.33;1.80;;;;;;;;;;4279352;33;20096;-76
2023/08/02 07:41:36;;;;;;;3.05;1.77;;;;;;;;;;4278656;33;20042;-77
2023/08/02 07:44:02;;;;;;;5.97;2.00;;;;;;;;;;4276585;33;20127;-76
2023/08/02 07:46:29;;;;;;;3.08;1.65;;;;;;;;;;4274880;33;20173;-77
2023/08/02 07:48:55;;;;;;;3.03;2.28;;;;;;;;;;4279062;33;20064;-76
2023/08/02 07:51:21;;;;;;;1.95;1.83;;;;;;;;;;4280000;33;20337;-76
2023/08/02 07:53:48;;;;;;;1.90;1.70;;;;;;;;;;4243453;33;20116;-77
2023/08/02 07:56:14;;;;;;;4.62;1.87;;;;;;;;;;4264485;33;20494;-76
2023/08/02 07:58:40;;;;;;;1.55;1.45;;;;;;;;;;4285437;33;20045;-76
2023/08/02 08:01:10;;;;;;;1.52;1.40;;;;;;;;;;4292794;33;20085;-75
2023/08/02 08:03:37;;;;;;;2.12;1.62;;;;;;;;;;4294168;33;20063;-75
2023/08/02 08:06:10;;;;;;;6.43;2.65;;;;;;;;;;4279952;33;20049;-76
2023/08/02 08:08:36;;;;;;;3.28;1.75;;;;;;;;;;4277138;33;20054;-75
2023/08/02 08:11:02;;;;;;;8.48;1.73;;;;;;;;;;4279540;33;20049;-75
2023/08/02 08:13:28;;;;;;;3.55;1.37;;;;;;;;;;4278970;33;20130;-76
2023/08/02 08:15:55;;;;;;;6.65;1.80;;;;;;;;;;4292763;33;20049;-75
2023/08/02 08:18:21;;;;;;;10.20;1.75;;;;;;;;;;4293883;33;20165;-76
2023/08/02 08:20:47;;;;;;;1.75;1.60;;;;;;;;;;4290841;33;20083;-76
2023/08/02 08:23:13;;;;;;;1.83;1.37;;;;;;;;;;4293651;33;20185;-76
2023/08/02 08:25:39;;;;;;;1.23;1.12;;;;;;;;;;4281969;33;20065;-75
2023/08/02 08:28:05;;;;;;;4.00;1.55;;;;;;;;;;4279358;33;20053;-75
2023/08/02 08:30:32;;;;;;;5.12;1.75;;;;;;;;;;4287975;33;20086;-76
2023/08/02 08:32:58;;;;;;;3.35;1.92;;;;;;;;;;4279957;33;20176;-74
2023/08/02 08:35:24;;;;;;;6.18;1.77;;;;;;;;;;4279257;33;20701;-75
2023/08/02 08:37:52;;;;;;;2.05;1.92;;;;;;;;;;4303467;33;20104;-75
2023/08/02 08:40:19;;;;;;;2.22;1.70;;;;;;;;;;4317170;33;20092;-75
2023/08/02 08:42:52;;;;;;;4.47;2.17;;;;;;;;;;4320882;33;20210;-76
2023/08/02 08:45:19;;;;;;;6.37;2.03;;;;;;;;;;4310698;33;20117;-76
2023/08/02 08:47:46;;;;;;;1.62;1.40;;;;;;;;;;4307977;33;20074;-77
2023/08/02 08:50:12;;;;;;;1.48;1.30;;;;;;;;;;4309833;33;20435;-76
2023/08/02 08:52:44;;;;;;;2.45;1.40;;;;;;;;;;4326888;33;20091;-77
2023/08/02 08:55:12;;;;;;;1.87;1.67;;;;;;;;;;4333937;33;20069;-77
2023/08/02 08:57:39;;;;;;;7.32;1.58;;;;;;;;;;4308068;33;20154;-77
2023/08/02 09:00:06;;;;;;;1.35;1.23;;;;;;;;;;4312581;33;20058;-77
2023/08/02 09:02:33;;;;;;;8.75;1.58;;;;;;;;;;4322391;33;20056;-77
2023/08/02 09:05:01;;;;;;;4.53;1.40;;;;;;;;;;4325931;33;20052;-77
2023/08/02 09:07:27;;;;;;;9.35;1.73;;;;;;;;;;4335062;33;20066;-77
2023/08/02 09:09:53;;;;;;;1.35;1.30;;;;;;;;;;4337358;33;20406;-77
2023/08/02 09:12:19;;;;;;;3.90;1.23;;;;;;;;;;4325191;33;20066;-77
2023/08/02 09:15:02;;;;;;;8.25;1.80;;;;;;;;;;4315028;33;20036;-76
2023/08/02 09:17:43;;;;;;;3.85;1.75;;;;;;;;;;4317131;33;20048;-78
2023/08/02 09:20:09;;;;;;;1.48;1.37;;;;;;;;;;4314485;33;20084;-77
2023/08/02 09:22:35;;;;;;;5.80;1.70;;;;;;;;;;4314148;33;20052;-77
2023/08/02 09:25:04;;;;;;;6.03;1.48;;;;;;;;;;4307204;33;20040;-77
2023/08/02 09:27:30;;;;;;;2.90;1.58;;;;;;;;;;4309417;33;20086;-76
2023/08/02 09:29:56;;;;;;;7.20;1.70;;;;;;;;;;4307301;33;20179;-77
2023/08/02 09:32:23;;;;;;;5.57;1.62;;;;;;;;;;4307624;33;20457;-77
2023/08/02 09:34:49;;;;;;;1.87;1.35;;;;;;;;;;4309136;33;20079;-78
2023/08/02 09:37:16;;;;;;;6.12;1.33;;;;;;;;;;4305630;33;20048;-76
2023/08/02 09:39:49;;;;;;;3.45;1.30;;;;;;;;;;4306859;33;20449;-76
2023/08/02 09:42:17;;;;;;;2.42;1.98;;;;;;;;;;4305276;33;20251;-75
2023/08/02 09:44:55;;;;;;;5.25;1.77;;;;;;;;;;4306165;33;20088;-75
2023/08/02 09:47:22;;;;;;;1.75;1.65;;;;;;;;;;4305061;33;20052;-75
2023/08/02 09:50:04;;;;;;;7.15;1.40;;;;;;;;;;4309280;33;20060;-75
2023/08/02 09:52:38;;;;;;;3.25;2.17;;;;;;;;;;4304902;33;20104;-76
2023/08/02 09:55:05;;;;;;;5.45;1.42;;;;;;;;;;4304655;33;20317;-76
2023/08/02 09:57:32;;;;;;;1.20;0.90;;;;;;;;;;4306638;33;20045;-76
2023/08/02 10:00:04;;;;;;;2.62;1.02;;;;;;;;;;4307560;33;20119;-76
2023/08/02 10:02:38;;;;;;;1.52;1.40;;;;;;;;;;4303996;33;20116;-76
2023/08/02 10:05:05;;;;;;;4.18;1.45;;;;;;;;;;4308548;33;20143;-76
2023/08/02 10:07:34;;;;;;;3.95;1.90;;;;;;;;;;4306993;33;20112;-76
2023/08/02 10:10:03;;;;;;;1.87;1.30;;;;;;;;;;4305650;33;20067;-76
2023/08/02 10:12:30;;;;;;;2.58;1.25;;;;;;;;;;4304904;33;20087;-77
2023/08/02 10:14:59;;;;;;;2.00;1.52;;;;;;;;;;4307434;33;20097;-76
2023/08/02 10:17:26;;;;;;;5.22;1.40;;;;;;;;;;4306346;33;20509;-77
2023/08/02 10:19:52;;;;;;;4.47;1.60;;;;;;;;;;4306248;33;20041;-77
2023/08/02 10:22:19;;;;;;;1.42;1.23;;;;;;;;;;4304578;33;20102;-77
2023/08/02 10:24:46;;;;;;;3.25;1.30;;;;;;;;;;4303341;33;20171;-77
2023/08/02 10:27:13;;;;;;;8.35;1.30;;;;;;;;;;4305875;33;20053;-77
2023/08/02 10:29:40;;;;;;;3.25;1.73;;;;;;;;;;4291786;33;20170;-76
2023/08/02 10:32:17;;;;;;;7.32;1.33;;;;;;;;;;4291800;33;20599;-76
2023/08/02 10:34:46;;;;;;;11.05;1.48;;;;;;;;;;4288365;33;20067;-76
2023/08/02 10:37:13;;;;;;;4.95;1.42;;;;;;;;;;4291491;33;20080;-77
2023/08/02 10:39:45;;;;;;;1.08;0.98;;;;;;;;;;4291755;33;20034;-77
2023/08/02 10:42:12;;;;;;;1.27;1.12;;;;;;;;;;4292544;33;20073;-77
2023/08/02 10:44:56;;;;;;;2.67;1.33;;;;;;;;;;4288794;33;20089;-77
2023/08/02 10:47:30;;;;;;;5.95;1.23;;;;;;;;;;4291685;33;20051;-77
2023/08/02 10:53:06;;;;;;;7.47;1.40;;;;;;;;;;4292219;33;20049;-77
2023/08/02 10:55:34;;;;;;;1.80;1.50;;;;;;;;;;4290317;33;20502;-77
2023/08/02 10:58:07;;;;;;;4.53;1.98;;;;;;;;;;4290265;33;20392;-76
2023/08/02 11:03:29;;;;;;;3.08;1.52;;;;;;;;;;4300806;33;20488;-76
2023/08/02 11:05:55;;;;;;;1.60;1.50;;;;;;;;;;4306524;33;20048;-75
2023/08/02 11:08:21;;;;;;;1.40;1.30;;;;;;;;;;4302045;33;20045;-76
2023/08/02 11:10:50;;;;;;;1.60;1.25;;;;;;;;;;4293702;33;20025;-76
2023/08/02 11:13:17;;;;;;;1.42;1.40;;;;;;;;;;4290335;33;20041;-76
2023/08/02 11:15:43;;;;;;;2.87;1.45;;;;;;;;;;4292969;33;20056;-77
2023/08/02 11:18:10;;;;;;;1.73;1.40;;;;;;;;;;4296410;33;20102;-77
2023/08/02 11:20:37;;;;;;;2.10;1.42;;;;;;;;;;4295320;33;20048;-76
2023/08/02 11:23:22;;;;;;;3.72;1.17;;;;;;;;;;4294509;33;20446;-76
2023/08/02 11:25:50;;;;;;;3.17;1.20;;;;;;;;;;4291574;33;20078;-75
2023/08/02 11:28:17;;;;;;;1.20;1.20;;;;;;;;;;4294586;33;20057;-76
2023/08/02 11:30:48;;;;;;;2.35;1.45;;;;;;;;;;4295463;33;20447;-76
2023/08/02 11:33:14;;;;;;;4.30;2.17;;;;;;;;;;4291890;33;20198;-76
2023/08/02 11:35:40;;;;;;;3.25;1.48;;;;;;;;;;4293844;33;20439;-77
2023/08/02 11:38:11;;;;;;;1.58;1.33;;;;;;;;;;4305366;33;20044;-76
2023/08/02 11:40:37;;;;;;;2.97;1.17;;;;;;;;;;4307345;33;20028;-76
2023/08/02 11:43:03;;;;;;;2.58;1.05;;;;;;;;;;4307922;33;20072;-75
2023/08/02 11:45:30;;;;;;;1.00;1.00;;;;;;;;;;4313522;33;20566;-74
2023/08/02 11:47:57;;;;;;;8.88;1.50;;;;;;;;;;4311105;33;20462;-77
2023/08/02 11:50:25;;;;;;;1.15;1.15;;;;;;;;;;4311979;33;20136;-78
2023/08/02 11:52:52;;;;;;;1.30;1.10;;;;;;;;;;4311094;33;20057;-77
2023/08/02 11:55:20;;;;;;;1.50;1.40;;;;;;;;;;4281113;33;20041;-76
2023/08/02 11:57:47;;;;;;;1.50;1.40;;;;;;;;;;4283538;33;20053;-76
2023/08/02 12:00:13;;;;;;;1.95;1.37;;;;;;;;;;4281951;33;20045;-75
2023/08/02 12:02:43;;;;;;;3.40;1.25;;;;;;;;;;4293524;33;20353;-75
2023/08/02 12:05:17;;;;;;;2.20;0.98;;;;;;;;;;4295764;33;20159;-75
2023/08/02 12:07:44;;;;;;;4.12;1.35;;;;;;;;;;4289444;33;20049;-75
2023/08/02 12:10:11;;;;;;;1.55;1.45;;;;;;;;;;4293908;33;20212;-74
2023/08/02 12:12:37;;;;;;;3.35;1.10;;;;;;;;;;4294470;33;20095;-76
2023/08/02 12:15:10;;;;;;;1.62;1.05;;;;;;;;;;4293943;33;20455;-75
2023/08/02 12:17:36;;;;;;;3.10;1.40;;;;;;;;;;4287004;33;20203;-77
2023/08/02 12:20:08;;;;;;;3.00;1.10;;;;;;;;;;4274729;33;20059;-76
2023/08/02 12:22:48;;;;;;;1.40;1.27;;;;;;;;;;4270797;33;20046;-76
2023/08/02 12:25:14;;;;;;;1.87;1.40;;;;;;;;;;4273999;33;20417;-76
2023/08/02 12:27:40;;;;;;;3.90;1.25;;;;;;;;;;4261371;33;20236;-74
2023/08/02 12:30:08;;;;;;;10.90;1.25;;;;;;;;;;4260172;33;20101;-75
2023/08/02 12:32:35;;;;;;;1.62;1.30;;;;;;;;;;4267625;33;20451;-76
2023/08/02 12:35:07;;;;;;;1.40;1.30;;;;;;;;;;4248958;33;20060;-76
2023/08/02 12:37:34;;;;;;;1.27;1.20;;;;;;;;;;4248184;33;20148;-76
2023/08/02 12:40:01;;;;;;;3.00;1.12;;;;;;;;;;4248363;33;20465;-76
2023/08/02 12:42:28;;;;;;;5.93;1.42;;;;;;;;;;4247761;33;20054;-75
2023/08/02 12:44:54;;;;;;;0.88;0.88;;;;;;;;;;4249719;33;20180;-74
2023/08/02 12:47:20;;;;;;;1.62;1.20;;;;;;;;;;4250051;33;20288;-74
2023/08/02 12:49:46;;;;;;;1.10;1.10;;;;;;;;;;4250244;33;20173;-75
2023/08/02 12:52:12;;;;;;;1.65;1.45;;;;;;;;;;4232758;33;20499;-74
2023/08/02 12:54:38;;;;;;;1.58;1.30;;;;;;;;;;4236870;33;20129;-76
2023/08/02 12:57:05;;;;;;;6.78;1.17;;;;;;;;;;4237551;33;20801;-74
2023/08/02 12:59:31;;;;;;;1.33;1.20;;;;;;;;;;4247627;33;20057;-75
2023/08/02 13:01:57;;;;;;;5.12;1.60;;;;;;;;;;4251365;33;20816;-74
2023/08/02 13:04:23;;;;;;;2.30;1.30;;;;;;;;;;4250867;33;20088;-75
2023/08/02 13:06:50;;;;;;;1.12;1.12;;;;;;;;;;4249014;33;20927;-73
2023/08/02 13:09:16;;;;;;;1.92;1.17;;;;;;;;;;4277753;33;20063;-74
2023/08/02 13:11:48;;;;;;;1.12;0.98;;;;;;;;;;4290204;33;20071;-74
2023/08/02 13:14:14;;;;;;;1.35;1.33;;;;;;;;;;4318022;33;20096;-75
2023/08/02 13:16:40;;;;;;;1.90;1.08;;;;;;;;;;4324605;33;20096;-76
2023/08/02 13:19:07;;;;;;;6.55;1.40;;;;;;;;;;4327665;33;20080;-75
2023/08/02 13:21:33;;;;;;;2.83;1.20;;;;;;;;;;4317334;33;20433;-74
2023/08/02 13:23:59;;;;;;;6.28;1.23;;;;;;;;;;4316429;33;20151;-74
2023/08/02 13:26:25;;;;;;;1.02;0.93;;;;;;;;;;4317158;33;20121;-74
2023/08/02 13:28:51;;;;;;;1.50;0.90;;;;;;;;;;4312235;33;20036;-75
2023/08/02 13:31:17;;;;;;;2.12;1.00;;;;;;;;;;4317657;33;20056;-74
2023/08/02 13:33:45;;;;;;;1.40;1.30;;;;;;;;;;4314440;33;20139;-74
2023/08/02 13:36:11;;;;;;;1.20;1.10;;;;;;;;;;4319003;33;20063;-74
2023/08/02 13:38:37;;;;;;;1.58;1.35;;;;;;;;;;4312918;33;20071;-74
2023/08/02 13:41:04;;;;;;;1.48;1.37;;;;;;;;;;4302850;33;20070;-74
2023/08/02 13:43:30;;;;;;;7.62;1.40;;;;;;;;;;4309501;33;20383;-73
2023/08/02 13:45:56;;;;;;;9.68;1.40;;;;;;;;;;4313311;33;20094;-74
2023/08/02 13:48:22;;;;;;;2.45;1.37;;;;;;;;;;4309198;33;20423;-73
2023/08/02 13:50:48;;;;;;;1.08;1.08;;;;;;;;;;4309239;33;20057;-74
2023/08/02 13:53:14;;;;;;;1.30;1.20;;;;;;;;;;4306905;33;20059;-73
2023/08/02 13:55:41;;;;;;;1.08;1.08;;;;;;;;;;4308126;33;20065;-73
2023/08/02 13:58:07;;;;;;;5.47;1.40;;;;;;;;;;4308996;33;20052;-73
2023/08/02 14:00:33;;;;;;;1.60;1.50;;;;;;;;;;4308446;33;20056;-74
2023/08/02 14:02:59;;;;;;;1.25;1.17;;;;;;;;;;4306904;33;20219;-75
2023/08/02 14:05:26;;;;;;;1.35;1.20;;;;;;;;;;4291804;33;20045;-74
2023/08/02 14:07:51;;;;;;;1.30;1.10;;;;;;;;;;4294668;33;20107;-74
2023/08/02 14:10:18;;;;;;;1.00;1.00;;;;;;;;;;4294141;33;20060;-75
2023/08/02 14:12:44;;;;;;;1.73;1.20;;;;;;;;;;4291583;33;20099;-73
2023/08/02 14:15:10;;;;;;;1.30;1.27;;;;;;;;;;4293236;33;20539;-74
2023/08/02 14:17:36;;;;;;;5.15;1.42;;;;;;;;;;4274707;33;20041;-74
2023/08/02 14:20:03;;;;;;;1.10;1.10;;;;;;;;;;4275669;33;20053;-72
2023/08/02 14:22:31;;;;;;;8.73;1.37;;;;;;;;;;4273128;33;20041;-72
2023/08/02 14:24:57;;;;;;;1.92;1.17;;;;;;;;;;4275174;33;20057;-74
2023/08/02 14:27:23;;;;;;;5.97;2.53;;;;;;;;;;4280571;33;20866;-74
2023/08/02 14:29:49;;;;;;;1.75;1.60;;;;;;;;;;4275751;33;20119;-75
2023/08/02 14:32:15;;;;;;;4.68;1.42;;;;;;;;;;4274307;33;20080;-74
2023/08/02 14:34:42;;;;;;;7.53;1.50;;;;;;;;;;4260784;33;20084;-74
2023/08/02 14:37:15;;;;;;;2.37;1.08;;;;;;;;;;4232540;33;20439;-73
2023/08/02 14:39:41;;;;;;;1.42;1.37;;;;;;;;;;4233183;33;20058;-73
2023/08/02 14:42:07;;;;;;;3.45;1.52;;;;;;;;;;4232409;33;20073;-74
2023/08/02 14:44:33;;;;;;;1.33;1.23;;;;;;;;;;4233274;33;20054;-73
2023/08/02 14:46:59;;;;;;;5.20;1.55;;;;;;;;;;4233686;33;20444;-74
2023/08/02 14:49:26;;;;;;;6.85;1.20;;;;;;;;;;4235762;33;20429;-73
2023/08/02 14:51:51;;;;;;;1.20;1.20;;;;;;;;;;4237847;33;20125;-73
2023/08/02 14:54:18;;;;;;;1.70;1.35;;;;;;;;;;4244632;33;20054;-73
2023/08/02 14:56:44;;;;;;;2.35;1.25;;;;;;;;;;4242199;33;20069;-73
2023/08/02 14:59:10;;;;;;;3.40;1.50;;;;;;;;;;4235438;33;20118;-73
2023/08/02 15:01:36;;;;;;;1.00;1.00;;;;;;;;;;4240900;33;20045;-73
2023/08/02 15:04:02;;;;;;;2.03;1.45;;;;;;;;;;4251640;33;20058;-74
2023/08/02 15:06:28;;;;;;;3.70;1.27;;;;;;;;;;4288778;33;20100;-75
2023/08/02 15:08:55;;;;;;;0.93;0.93;;;;;;;;;;4295249;33;21119;-74
2023/08/02 15:11:21;;;;;;;5.10;1.37;;;;;;;;;;4291465;33;20045;-74
2023/08/02 15:13:47;;;;;;;11.27;1.20;;;;;;;;;;4292585;33;20054;-73
2023/08/02 15:16:13;;;;;;;1.60;1.05;;;;;;;;;;4293396;33;20070;-75
2023/08/02 15:18:40;;;;;;;2.65;1.33;;;;;;;;;;4293146;33;20557;-73
2023/08/02 15:21:06;;;;;;;3.67;1.52;;;;;;;;;;4293664;33;20427;-73
2023/08/02 15:23:32;;;;;;;6.03;1.33;;;;;;;;;;4293275;33;20061;-75
2023/08/02 15:25:58;;;;;;;1.50;1.15;;;;;;;;;;4292979;33;20044;-75
2023/08/02 15:28:24;;;;;;;2.17;1.20;;;;;;;;;;4292701;33;20082;-75
2023/08/02 15:30:50;;;;;;;1.10;1.10;;;;;;;;;;4291809;33;20193;-75
2023/08/02 15:33:17;;;;;;;2.28;1.02;;;;;;;;;;4293108;33;21718;-72
2023/08/02 15:35:43;;;;;;;6.62;1.25;;;;;;;;;;4297250;33;20061;-74
2023/08/02 15:38:10;;;;;;;1.10;1.05;;;;;;;;;;4297242;33;20114;-75
2023/08/02 15:40:36;;;;;;;8.40;1.73;;;;;;;;;;4296153;33;20447;-76
2023/08/02 15:43:02;;;;;;;2.60;1.23;;;;;;;;;;4297325;33;20071;-76
2023/08/02 15:45:29;;;;;;;3.10;2.80;;;;;;;;;;4299395;33;20049;-76
2023/08/02 15:47:56;;;;;;;1.85;1.25;;;;;;;;;;4305141;33;20548;-75
2023/08/02 15:50:21;;;;;;;1.27;1.17;;;;;;;;;;4292834;33;20045;-74
2023/08/02 15:52:48;;;;;;;1.30;1.30;;;;;;;;;;4291244;33;20061;-74
2023/08/02 15:55:14;;;;;;;1.25;1.25;;;;;;;;;;4299599;33;20395;-76
2023/08/02 15:57:40;;;;;;;3.70;1.10;;;;;;;;;;4285507;33;20052;-76
2023/08/02 16:00:07;;;;;;;2.83;1.65;;;;;;;;;;4282208;33;20441;-75
2023/08/02 16:02:37;;;;;;;1.30;1.15;;;;;;;;;;4281567;33;20372;-77
2023/08/02 16:05:04;;;;;;;1.83;1.67;;;;;;;;;;4278616;33;20046;-76
2023/08/02 16:07:30;;;;;;;1.48;1.10;;;;;;;;;;4280105;33;20054;-76
2023/08/02 16:09:56;;;;;;;1.05;1.02;;;;;;;;;;4286498;33;20088;-76
2023/08/02 16:12:22;;;;;;;4.57;1.45;;;;;;;;;;4278937;33;20053;-77
2023/08/02 16:14:48;;;;;;;0.90;0.80;;;;;;;;;;4277968;33;20136;-76
2023/08/02 16:17:14;;;;;;;1.37;1.25;;;;;;;;;;4277595;33;20990;-76
2023/08/02 16:19:40;;;;;;;2.87;1.15;;;;;;;;;;4279654;33;20072;-77
2023/08/02 16:22:07;;;;;;;1.12;1.00;;;;;;;;;;4237530;33;20050;-76
2023/08/02 16:24:33;;;;;;;1.12;0.98;;;;;;;;;;4232056;33;20047;-74
2023/08/02 16:26:59;;;;;;;1.02;1.02;;;;;;;;;;4235062;33;20384;-76
2023/08/02 16:29:25;;;;;;;3.12;1.37;;;;;;;;;;4246969;33;20073;-75
2023/08/02 16:31:51;;;;;;;2.25;1.05;;;;;;;;;;4263624;33;20058;-75
2023/08/02 16:34:18;;;;;;;2.03;1.20;;;;;;;;;;4263944;33;20041;-74
2023/08/02 16:36:44;;;;;;;1.10;1.10;;;;;;;;;;4264479;33;20061;-74
2023/08/02 16:39:11;;;;;;;0.98;0.98;;;;;;;;;;4262390;33;20168;-74
2023/08/02 16:41:38;;;;;;;1.50;1.40;;;;;;;;;;4264690;33;20111;-75
2023/08/02 16:44:04;;;;;;;1.15;1.15;;;;;;;;;;4275877;33;20076;-76
2023/08/02 16:46:30;;;;;;;3.65;1.20;;;;;;;;;;4268145;33;20072;-76
2023/08/02 16:48:57;;;;;;;5.45;1.27;;;;;;;;;;4262515;33;20095;-76